Time;durP1;ratioP1;P1;durP2;ratioP2;P2;SDS_P1;SDS_P2;PMS_P1;PMS_P2;Temp;Humidity;BMP_temperature;BMP_pressure;BME280_temperature;BME280_humidity;BME280_pressure;Samples;Min_cycle;Max_cycle;Signal;HPM_P1;HPM_P2
2023/05/10 00:02:24;;;;;;;8.65;2.13;;;18.10;93.80;;;;;;4986048;28;20027;-54
2023/05/10 00:04:50;;;;;;;12.20;2.40;;;18.00;93.80;;;;;;4986858;28;20037;-54
2023/05/10 00:07:17;;;;;;;14.68;2.50;;;18.00;93.80;;;;;;4987867;28;20106;-54
2023/05/10 00:09:42;;;;;;;9.27;2.35;;;18.00;93.80;;;;;;5001278;28;20045;-54
2023/05/10 00:12:08;;;;;;;6.95;2.00;;;18.00;93.80;;;;;;4970573;28;20038;-54
2023/05/10 00:14:34;;;;;;;10.02;2.30;;;17.90;93.80;;;;;;4987749;28;20035;-54
2023/05/10 00:16:59;;;;;;;13.57;2.28;;;17.90;93.80;;;;;;4971043;28;20088;-54
2023/05/10 00:19:25;;;;;;;12.43;2.38;;;17.90;93.80;;;;;;4986134;28;20039;-54
2023/05/10 00:21:50;;;;;;;4.82;1.60;;;17.90;93.80;;;;;;4986776;28;20050;-54
2023/05/10 00:24:16;;;;;;;6.22;1.80;;;17.90;93.90;;;;;;4987658;28;20023;-54
2023/05/10 00:26:42;;;;;;;5.80;1.60;;;17.90;93.80;;;;;;4986794;28;20054;-54
2023/05/10 00:29:07;;;;;;;8.15;1.73;;;17.80;93.80;;;;;;4987740;28;20031;-54
2023/05/10 00:31:33;;;;;;;9.27;1.83;;;17.80;93.70;;;;;;4985902;28;20097;-54
2023/05/10 00:33:58;;;;;;;10.05;2.03;;;17.80;93.80;;;;;;4987136;28;20360;-54
2023/05/10 00:36:24;;;;;;;4.78;1.30;;;17.80;93.70;;;;;;4987244;28;20045;-54
2023/05/10 00:38:50;;;;;;;9.70;1.98;;;17.80;93.70;;;;;;4985410;28;20082;-54
2023/05/10 00:41:15;;;;;;;7.68;1.77;;;17.80;93.70;;;;;;4986411;28;20023;-54
2023/05/10 00:43:41;;;;;;;8.68;1.42;;;17.80;93.70;;;;;;4985182;28;20262;-54
2023/05/10 00:46:06;;;;;;;6.05;1.48;;;17.80;93.70;;;;;;4969391;28;20336;-54
2023/05/10 00:48:32;;;;;;;6.07;1.52;;;17.70;93.70;;;;;;4985935;28;20039;-54
2023/05/10 00:50:57;;;;;;;8.45;1.85;;;17.70;93.70;;;;;;5002390;28;20143;-54
2023/05/10 00:53:23;;;;;;;5.82;1.30;;;17.70;93.70;;;;;;4969574;28;20035;-54
2023/05/10 00:55:48;;;;;;;7.53;1.67;;;17.70;93.70;;;;;;4985564;28;20466;-54
2023/05/10 00:58:14;;;;;;;6.00;1.63;;;17.70;93.70;;;;;;4984860;28;20034;-54
2023/05/10 01:00:41;;;;;;;7.63;1.63;;;17.70;93.70;;;;;;5017953;28;20069;-54
2023/05/10 01:03:07;;;;;;;3.80;1.30;;;17.60;93.70;;;;;;4985397;28;20046;-54
2023/05/10 01:05:32;;;;;;;12.68;1.25;;;17.60;93.70;;;;;;4985590;28;20081;-54
2023/05/10 01:07:58;;;;;;;6.72;1.75;;;17.60;93.70;;;;;;4985733;28;20027;-54
2023/05/10 01:10:23;;;;;;;6.53;1.30;;;17.60;93.70;;;;;;4985632;28;20053;-54
2023/05/10 01:12:49;;;;;;;7.10;1.10;;;17.60;93.80;;;;;;4985514;28;20035;-54
2023/05/10 01:15:14;;;;;;;4.43;1.23;;;17.60;93.80;;;;;;4984207;28;20023;-54
2023/05/10 01:17:41;;;;;;;4.88;1.15;;;17.60;93.80;;;;;;4985790;28;20050;-54
2023/05/10 01:20:08;;;;;;;5.07;0.98;;;17.50;93.80;;;;;;4985684;28;20570;-54
2023/05/10 01:22:57;;;;;;;7.57;1.17;;;17.50;93.80;;;;;;4988030;28;20114;-54
2023/05/10 01:25:29;;;;;;;5.55;0.82;;;17.50;93.80;;;;;;4985582;28;20030;-54
2023/05/10 01:28:19;;;;;;;3.60;0.88;;;17.50;93.70;;;;;;5018172;28;20371;-54
2023/05/10 01:30:57;;;;;;;5.63;1.67;;;17.50;93.80;;;;;;5018152;28;20081;-54
2023/05/10 01:33:45;;;;;;;5.55;1.90;;;17.50;93.80;;;;;;4985459;28;20046;-54
2023/05/10 01:36:17;;;;;;;5.80;1.67;;;17.50;93.80;;;;;;4958280;28;20047;-54
2023/05/10 01:38:50;;;;;;;5.47;1.63;;;17.40;93.80;;;;;;4985599;28;20046;-55
2023/05/10 01:41:28;;;;;;;6.53;2.15;;;17.50;93.80;;;;;;4985127;28;20107;-54
2023/05/10 01:43:55;;;;;;;3.25;1.50;;;17.40;93.80;;;;;;4985199;28;20059;-54
2023/05/10 01:46:27;;;;;;;7.80;1.45;;;17.50;93.80;;;;;;4986559;28;20027;-54
2023/05/10 01:48:54;;;;;;;2.95;1.50;;;17.50;93.80;;;;;;4984222;28;20073;-54
2023/05/10 01:51:23;;;;;;;4.75;1.23;;;17.40;93.80;;;;;;4984273;28;20030;-54
2023/05/10 01:53:48;;;;;;;3.13;1.60;;;17.40;93.80;;;;;;4984326;28;20077;-54
2023/05/10 01:56:14;;;;;;;5.13;1.45;;;17.40;93.90;;;;;;4984576;28;20468;-54
2023/05/10 01:58:40;;;;;;;3.90;1.70;;;17.40;93.90;;;;;;4984296;28;20038;-54
2023/05/10 02:01:05;;;;;;;5.10;1.70;;;17.40;93.90;;;;;;4983349;28;20027;-54
2023/05/10 02:03:31;;;;;;;2.70;1.70;;;17.40;94.00;;;;;;4984038;28;20096;-54
2023/05/10 02:05:56;;;;;;;6.00;1.70;;;17.40;94.00;;;;;;4985012;28;20396;-54
2023/05/10 02:08:22;;;;;;;2.20;1.42;;;17.30;94.00;;;;;;4984167;28;20027;-54
2023/05/10 02:10:48;;;;;;;4.97;1.58;;;17.30;94.00;;;;;;4984595;28;20034;-55
2023/05/10 02:13:14;;;;;;;3.90;1.65;;;17.30;94.00;;;;;;4984620;28;20094;-54
2023/05/10 02:15:40;;;;;;;3.85;1.80;;;17.30;94.00;;;;;;4983921;28;20074;-54
2023/05/10 02:18:06;;;;;;;3.20;1.58;;;17.30;94.00;;;;;;4985787;28;20111;-54
2023/05/10 02:20:31;;;;;;;5.10;1.48;;;17.30;94.00;;;;;;4985352;28;20130;-54
2023/05/10 02:22:57;;;;;;;4.00;1.48;;;17.20;94.00;;;;;;4983958;28;20059;-54
2023/05/10 02:25:23;;;;;;;7.97;1.55;;;17.30;94.10;;;;;;4983335;28;20031;-54
2023/05/10 02:27:49;;;;;;;2.03;1.20;;;17.20;94.00;;;;;;4984225;28;20126;-54
2023/05/10 02:30:15;;;;;;;5.30;1.30;;;17.20;94.10;;;;;;4984124;28;20136;-54
2023/05/10 02:32:40;;;;;;;5.15;1.20;;;17.20;94.10;;;;;;4984292;28;20610;-54
2023/05/10 02:35:06;;;;;;;2.65;1.17;;;17.20;94.10;;;;;;4983546;28;20034;-54
2023/05/10 02:37:32;;;;;;;2.72;1.13;;;17.20;94.20;;;;;;4985383;28;20066;-54
2023/05/10 02:39:58;;;;;;;4.30;0.95;;;17.20;94.20;;;;;;4983818;28;20023;-54
2023/05/10 02:42:27;;;;;;;2.45;1.10;;;17.20;94.20;;;;;;4983925;28;20034;-54
2023/05/10 02:44:54;;;;;;;2.90;1.00;;;17.10;94.20;;;;;;5000888;28;20043;-55
2023/05/10 02:47:20;;;;;;;3.47;1.00;;;17.10;94.20;;;;;;4984149;28;20031;-54
2023/05/10 02:49:45;;;;;;;2.50;1.00;;;17.10;94.20;;;;;;4983728;28;20026;-54
2023/05/10 02:52:11;;;;;;;1.80;1.00;;;17.10;94.20;;;;;;4983986;28;20094;-54
2023/05/10 02:54:41;;;;;;;2.70;1.10;;;17.10;94.50;;;;;;4984158;28;20038;-54
2023/05/10 02:57:06;;;;;;;3.80;1.10;;;17.10;94.30;;;;;;4983736;28;20035;-54
2023/05/10 02:59:32;;;;;;;1.20;1.00;;;17.00;94.30;;;;;;4982911;28;20034;-54
2023/05/10 03:02:00;;;;;;;1.13;0.80;;;17.00;94.30;;;;;;4983915;28;20031;-54
2023/05/10 03:04:25;;;;;;;4.15;0.90;;;17.00;94.30;;;;;;4983810;28;20046;-54
2023/05/10 03:06:51;;;;;;;2.28;1.00;;;17.00;94.40;;;;;;4964668;28;20395;-54
2023/05/10 03:09:16;;;;;;;2.90;1.25;;;17.00;94.50;;;;;;4968413;28;20054;-54
2023/05/10 03:11:45;;;;;;;1.73;1.10;;;17.00;94.60;;;;;;4982215;28;20058;-54
2023/05/10 03:14:35;;;;;;;3.70;1.30;;;17.00;94.60;;;;;;4985013;28;20026;-54
2023/05/10 03:17:11;;;;;;;3.35;1.45;;;17.00;94.70;;;;;;4985429;28;20059;-54
2023/05/10 03:19:43;;;;;;;7.05;2.45;;;16.90;94.80;;;;;;4983154;28;20066;-54
2023/05/10 03:22:10;;;;;;;4.97;2.40;;;16.90;94.90;;;;;;4985369;28;20038;-54
2023/05/10 03:24:36;;;;;;;4.47;2.38;;;16.90;95.00;;;;;;4983627;28;20019;-54
2023/05/10 03:27:04;;;;;;;4.45;2.20;;;16.90;95.40;;;;;;4983525;28;20027;-55
2023/05/10 03:29:30;;;;;;;3.13;2.25;;;16.90;95.20;;;;;;4983630;28;20030;-54
2023/05/10 03:31:59;;;;;;;4.05;2.00;;;16.90;95.30;;;;;;4981625;28;20045;-54
2023/05/10 03:34:24;;;;;;;6.07;2.35;;;16.80;95.30;;;;;;4984395;28;20145;-54
2023/05/10 03:36:50;;;;;;;5.32;2.47;;;16.80;95.40;;;;;;4965491;28;20134;-54
2023/05/10 03:39:16;;;;;;;20.33;3.55;;;16.80;95.40;;;;;;4987389;28;20047;-55
2023/05/10 03:41:41;;;;;;;16.80;3.50;;;16.80;95.80;;;;;;4987519;28;20467;-54
2023/05/10 03:44:07;;;;;;;35.95;5.47;;;16.80;95.60;;;;;;4986835;28;20030;-54
2023/05/10 03:46:32;;;;;;;80.32;9.60;;;16.80;95.60;;;;;;4987405;28;20023;-54
2023/05/10 03:48:58;;;;;;;50.45;5.45;;;16.70;95.60;;;;;;4970693;28;20025;-54
2023/05/10 03:51:27;;;;;;;29.23;4.80;;;16.80;95.60;;;;;;4988011;28;20035;-54
2023/05/10 03:53:56;;;;;;;19.35;3.85;;;16.70;95.60;;;;;;4987052;28;20087;-54
2023/05/10 03:56:21;;;;;;;17.42;4.35;;;16.70;95.60;;;;;;4986850;28;20081;-54
2023/05/10 03:58:47;;;;;;;22.65;3.58;;;16.70;95.60;;;;;;5019006;28;20110;-55
2023/05/10 04:01:12;;;;;;;28.08;3.92;;;16.70;95.60;;;;;;4988099;28;20035;-54
2023/05/10 04:03:38;;;;;;;22.63;3.38;;;16.70;95.60;;;;;;4986071;28;20043;-55
2023/05/10 04:06:04;;;;;;;24.10;3.83;;;16.60;95.60;;;;;;4986662;28;20027;-54
2023/05/10 04:08:29;;;;;;;21.20;3.75;;;16.70;95.70;;;;;;4986683;28;20101;-54
2023/05/10 04:11:04;;;;;;;14.73;3.03;;;16.70;95.70;;;;;;4986389;28;20034;-54
2023/05/10 04:13:29;;;;;;;14.70;2.63;;;16.70;95.80;;;;;;4986958;28;20035;-54
2023/05/10 04:15:55;;;;;;;13.07;3.13;;;16.60;95.80;;;;;;4987727;28;20139;-54
2023/05/10 04:18:20;;;;;;;20.45;3.72;;;16.60;95.80;;;;;;4986926;28;20050;-54
2023/05/10 04:20:46;;;;;;;16.38;2.90;;;16.60;95.80;;;;;;4986443;28;20054;-54
2023/05/10 04:23:12;;;;;;;18.27;2.78;;;16.60;95.90;;;;;;4987408;28;20023;-54
2023/05/10 04:25:37;;;;;;;16.67;3.25;;;16.60;95.80;;;;;;4986364;28;20023;-54
2023/05/10 04:28:03;;;;;;;11.13;2.58;;;16.60;95.80;;;;;;4986152;28;20058;-54
2023/05/10 04:30:29;;;;;;;14.38;3.08;;;16.60;95.80;;;;;;4986912;28;20114;-54
2023/05/10 04:32:54;;;;;;;11.73;2.10;;;16.60;95.80;;;;;;4986311;28;20058;-54
2023/05/10 04:35:20;;;;;;;10.18;2.33;;;16.50;95.70;;;;;;4987223;28;20478;-55
2023/05/10 04:37:45;;;;;;;6.63;2.05;;;16.50;95.70;;;;;;4986607;28;20057;-54
2023/05/10 04:40:11;;;;;;;8.85;2.10;;;16.50;95.70;;;;;;4983851;28;20035;-54
2023/05/10 04:42:37;;;;;;;9.35;2.80;;;16.50;95.70;;;;;;4983810;28;20074;-54
2023/05/10 04:45:03;;;;;;;10.02;1.88;;;16.50;95.70;;;;;;4985285;28;20106;-54
2023/05/10 04:47:28;;;;;;;7.47;1.92;;;16.50;95.70;;;;;;4987612;28;20069;-55
2023/05/10 04:49:54;;;;;;;5.25;1.60;;;16.50;95.70;;;;;;4986234;28;20038;-55
2023/05/10 04:52:19;;;;;;;8.25;2.05;;;16.50;95.70;;;;;;4984218;28;20039;-55
2023/05/10 04:54:45;;;;;;;6.13;1.77;;;16.50;95.60;;;;;;4986706;28;20031;-54
2023/05/10 04:57:10;;;;;;;9.23;2.00;;;16.50;95.60;;;;;;4985594;28;20038;-54
2023/05/10 04:59:37;;;;;;;8.32;1.58;;;16.40;95.50;;;;;;5001673;28;20082;-54
2023/05/10 05:02:03;;;;;;;6.20;1.92;;;16.50;95.50;;;;;;4985571;28;20035;-54
2023/05/10 05:04:29;;;;;;;6.80;2.00;;;16.50;95.50;;;;;;5017064;28;20022;-54
2023/05/10 05:06:55;;;;;;;5.03;1.80;;;16.40;95.50;;;;;;4985915;28;20114;-54
2023/05/10 05:09:20;;;;;;;7.25;1.85;;;16.50;95.50;;;;;;4986168;28;20026;-54
2023/05/10 05:11:46;;;;;;;9.77;2.03;;;16.50;95.50;;;;;;5017853;28;20487;-54
2023/05/10 05:14:11;;;;;;;7.28;1.88;;;16.50;95.40;;;;;;4986795;28;20062;-54
2023/05/10 05:16:37;;;;;;;8.55;1.35;;;16.50;95.30;;;;;;5017716;28;20049;-55
2023/05/10 05:19:02;;;;;;;7.90;1.90;;;16.50;95.60;;;;;;4986506;28;20035;-54
2023/05/10 05:21:28;;;;;;;10.35;1.67;;;16.50;95.20;;;;;;4984194;28;20019;-54
2023/05/10 05:23:54;;;;;;;4.45;1.40;;;16.60;95.20;;;;;;4985784;28;20037;-54
2023/05/10 05:26:20;;;;;;;7.38;1.58;;;16.60;95.40;;;;;;4985014;28;20023;-54
2023/05/10 05:28:45;;;;;;;7.55;1.92;;;16.60;95.10;;;;;;4986259;28;20047;-54
2023/05/10 05:31:11;;;;;;;7.32;1.88;;;16.60;95.00;;;;;;4984422;28;20447;-55
2023/05/10 05:33:36;;;;;;;8.40;1.50;;;16.60;95.00;;;;;;4984494;28;20049;-54
2023/05/10 05:36:03;;;;;;;6.38;1.40;;;16.60;95.00;;;;;;4984786;28;20149;-54
2023/05/10 05:38:28;;;;;;;7.03;1.63;;;16.60;95.00;;;;;;4968356;28;20031;-55
2023/05/10 05:40:54;;;;;;;3.05;1.42;;;16.60;94.90;;;;;;4985529;28;20053;-54
2023/05/10 05:43:20;;;;;;;10.52;2.13;;;16.60;94.90;;;;;;4986044;28;20114;-54
2023/05/10 05:45:45;;;;;;;7.15;1.63;;;16.60;94.90;;;;;;4984774;28;20085;-54
2023/05/10 05:48:11;;;;;;;5.80;1.52;;;16.60;94.80;;;;;;4985223;28;20436;-55
2023/05/10 05:50:36;;;;;;;5.60;1.15;;;16.60;94.80;;;;;;4985569;28;20054;-55
2023/05/10 05:53:02;;;;;;;8.23;1.45;;;16.60;94.80;;;;;;4985722;28;20049;-54
2023/05/10 05:55:29;;;;;;;4.78;1.48;;;16.60;94.80;;;;;;4985604;28;20050;-54
2023/05/10 05:57:54;;;;;;;5.63;1.35;;;16.60;94.70;;;;;;4984932;28;20023;-54
2023/05/10 06:00:21;;;;;;;5.20;1.05;;;16.60;94.70;;;;;;4984415;28;20506;-54
2023/05/10 06:02:46;;;;;;;10.80;1.40;;;16.60;94.70;;;;;;4984801;28;20091;-54
2023/05/10 06:05:13;;;;;;;6.55;1.48;;;16.60;94.60;;;;;;5015121;28;20033;-54
2023/05/10 06:07:41;;;;;;;2.28;1.00;;;16.60;94.60;;;;;;4985673;28;20039;-54
2023/05/10 06:10:07;;;;;;;2.42;1.02;;;16.60;94.60;;;;;;4985665;28;20038;-54
2023/05/10 06:12:33;;;;;;;2.33;0.93;;;16.60;94.50;;;;;;4985573;28;20146;-54
2023/05/10 06:14:58;;;;;;;4.13;1.20;;;16.60;94.50;;;;;;4984091;28;20031;-54
2023/05/10 06:17:24;;;;;;;2.47;0.90;;;16.60;94.50;;;;;;4984680;28;20105;-54
2023/05/10 06:19:50;;;;;;;3.10;1.20;;;16.60;94.50;;;;;;4983524;28;20031;-55
2023/05/10 06:22:16;;;;;;;4.15;1.20;;;16.60;94.50;;;;;;4984038;28;20054;-54
2023/05/10 06:24:41;;;;;;;2.63;0.85;;;16.60;94.50;;;;;;4985478;28;20035;-54
2023/05/10 06:27:07;;;;;;;3.88;1.20;;;16.60;94.50;;;;;;4983585;28;20085;-54
2023/05/10 06:29:33;;;;;;;4.55;1.30;;;16.50;94.50;;;;;;4965219;28;20057;-54
2023/05/10 06:31:58;;;;;;;5.57;1.10;;;16.50;94.50;;;;;;4974662;28;20027;-54
2023/05/10 06:34:24;;;;;;;2.45;0.95;;;16.50;94.50;;;;;;4985393;28;20027;-54
2023/05/10 06:36:49;;;;;;;3.15;1.20;;;16.50;94.50;;;;;;4986008;28;20137;-54
2023/05/10 06:39:15;;;;;;;2.72;1.02;;;16.50;94.50;;;;;;4967760;28;20026;-54
2023/05/10 06:41:41;;;;;;;5.13;1.15;;;16.50;94.50;;;;;;4984713;28;20117;-54
2023/05/10 06:44:08;;;;;;;9.23;1.13;;;16.50;94.50;;;;;;4983930;28;20034;-54
2023/05/10 06:46:33;;;;;;;5.55;1.20;;;16.50;94.50;;;;;;4985215;28;20114;-54
2023/05/10 06:48:59;;;;;;;4.32;0.90;;;16.50;94.50;;;;;;5013461;28;20090;-54
2023/05/10 06:51:25;;;;;;;6.95;1.33;;;16.50;94.60;;;;;;4983413;28;20369;-54
2023/05/10 06:53:51;;;;;;;8.65;1.65;;;16.50;94.60;;;;;;4985605;28;20122;-54
2023/05/10 06:56:16;;;;;;;3.55;1.38;;;16.50;94.60;;;;;;4982836;28;20050;-54
2023/05/10 06:58:42;;;;;;;6.95;1.35;;;16.50;94.60;;;;;;4983486;28;20046;-54
2023/05/10 07:01:07;;;;;;;11.55;1.70;;;16.40;94.50;;;;;;4983850;28;20035;-54
2023/05/10 07:03:33;;;;;;;12.63;1.48;;;16.40;94.50;;;;;;4985318;28;20486;-54
2023/05/10 07:06:06;;;;;;;10.50;1.23;;;16.40;94.50;;;;;;4984256;28;20046;-54
2023/05/10 07:08:32;;;;;;;7.97;1.67;;;16.40;94.40;;;;;;4964876;28;20118;-54
2023/05/10 07:11:04;;;;;;;6.38;1.60;;;16.50;94.40;;;;;;4982521;28;20027;-54
2023/05/10 07:13:33;;;;;;;8.65;1.73;;;16.50;94.30;;;;;;4969553;28;20030;-55
2023/05/10 07:15:59;;;;;;;6.22;1.30;;;16.50;94.40;;;;;;4986663;28;20035;-54
2023/05/10 07:18:25;;;;;;;19.65;1.75;;;16.50;94.30;;;;;;4972562;28;20046;-54
2023/05/10 07:20:51;;;;;;;15.50;2.17;;;16.50;94.30;;;;;;4987281;28;20054;-53
2023/05/10 07:23:19;;;;;;;5.75;1.50;;;16.50;94.20;;;;;;4986290;28;20058;-53
2023/05/10 07:25:48;;;;;;;10.70;1.83;;;16.60;94.10;;;;;;4987361;28;20082;-54
2023/05/10 07:28:14;;;;;;;12.10;1.63;;;16.60;94.10;;;;;;4969321;28;20236;-54
2023/05/10 07:30:40;;;;;;;5.40;1.40;;;16.60;93.90;;;;;;4987459;28;20109;-54
2023/05/10 07:33:05;;;;;;;11.98;1.50;;;16.60;93.90;;;;;;4986482;28;20480;-54
2023/05/10 07:35:31;;;;;;;8.35;1.48;;;16.60;93.80;;;;;;4986982;28;20058;-54
2023/05/10 07:37:56;;;;;;;8.20;1.50;;;16.60;93.80;;;;;;4988807;28;20034;-54
2023/05/10 07:40:22;;;;;;;3.15;0.90;;;16.60;93.70;;;;;;4987159;28;20082;-54
2023/05/10 07:42:47;;;;;;;10.77;1.63;;;16.60;93.70;;;;;;4985416;28;20035;-55
2023/05/10 07:45:13;;;;;;;14.35;1.60;;;16.60;93.60;;;;;;4986750;28;20027;-54
2023/05/10 07:47:38;;;;;;;7.88;1.85;;;16.60;93.60;;;;;;4986926;28;20061;-55
2023/05/10 07:50:05;;;;;;;14.40;1.55;;;16.60;93.60;;;;;;4987135;28;20034;-54
2023/05/10 07:52:30;;;;;;;6.80;1.17;;;16.60;93.50;;;;;;4985786;28;20093;-54
2023/05/10 07:54:56;;;;;;;8.15;1.50;;;16.60;93.40;;;;;;4987172;28;20026;-54
2023/05/10 07:57:22;;;;;;;8.40;1.83;;;16.60;93.40;;;;;;4987322;28;20049;-54
2023/05/10 07:59:47;;;;;;;7.97;1.60;;;16.70;93.40;;;;;;4988650;28;20082;-54
2023/05/10 08:02:13;;;;;;;14.45;1.92;;;16.60;93.30;;;;;;4988750;28;20432;-54
2023/05/10 08:04:38;;;;;;;25.67;2.70;;;16.70;93.40;;;;;;4988391;28;20043;-55
2023/05/10 08:07:04;;;;;;;12.10;1.90;;;16.70;93.40;;;;;;4986692;28;20026;-54
2023/05/10 08:09:29;;;;;;;8.45;2.08;;;16.70;93.30;;;;;;4986864;28;20037;-55
2023/05/10 08:11:55;;;;;;;7.80;2.13;;;16.70;93.30;;;;;;4986763;28;20058;-54
2023/05/10 08:14:21;;;;;;;15.05;2.38;;;16.70;93.30;;;;;;4986888;28;20041;-54
2023/05/10 08:16:46;;;;;;;18.45;2.78;;;16.70;93.30;;;;;;4986323;28;20050;-54
2023/05/10 08:19:12;;;;;;;21.38;2.38;;;16.70;93.30;;;;;;4987511;28;20130;-54
2023/05/10 08:21:38;;;;;;;16.35;2.53;;;16.70;93.30;;;;;;4986228;28;20074;-54
2023/05/10 08:24:04;;;;;;;14.00;2.42;;;16.70;93.10;;;;;;4986799;28;20023;-54
2023/05/10 08:26:30;;;;;;;20.77;2.50;;;16.70;93.10;;;;;;4986185;28;20042;-54
2023/05/10 08:28:56;;;;;;;17.98;2.75;;;16.80;93.10;;;;;;4987902;28;20023;-54
2023/05/10 08:31:21;;;;;;;27.13;3.03;;;16.80;93.00;;;;;;4982763;28;20076;-54
2023/05/10 08:33:47;;;;;;;18.80;2.45;;;16.80;92.90;;;;;;4984282;28;21467;-54
2023/05/10 08:36:15;;;;;;;22.85;2.90;;;16.90;92.80;;;;;;4976830;28;20086;-55
2023/05/10 08:38:40;;;;;;;9.98;2.22;;;16.90;92.60;;;;;;4981460;28;20150;-54
2023/05/10 08:41:06;;;;;;;12.55;2.40;;;16.90;92.50;;;;;;4981527;28;20106;-54
2023/05/10 08:43:31;;;;;;;20.92;3.10;;;16.90;92.30;;;;;;4973842;28;20030;-54
2023/05/10 08:45:59;;;;;;;20.42;2.92;;;16.90;92.20;;;;;;4981755;28;20039;-55
2023/05/10 08:48:25;;;;;;;12.00;2.55;;;17.00;92.10;;;;;;4981605;28;20343;-54
2023/05/10 08:50:52;;;;;;;12.18;3.00;;;16.90;91.90;;;;;;4985578;28;20027;-54
2023/05/10 08:53:18;;;;;;;18.33;3.33;;;16.90;91.80;;;;;;4977950;28;20046;-55
2023/05/10 08:55:43;;;;;;;18.50;3.28;;;17.00;91.90;;;;;;4980630;28;20392;-54
2023/05/10 08:58:09;;;;;;;19.45;3.17;;;17.00;91.70;;;;;;4985125;28;20057;-54
2023/05/10 09:00:35;;;;;;;29.75;3.20;;;17.00;91.60;;;;;;4984812;28;20495;-54
2023/05/10 09:03:03;;;;;;;26.38;3.25;;;17.00;91.30;;;;;;4967382;28;20047;-54
2023/05/10 09:05:28;;;;;;;15.35;3.00;;;17.00;91.40;;;;;;4984565;28;20030;-55
2023/05/10 09:07:54;;;;;;;24.77;3.53;;;17.00;91.30;;;;;;4986172;28;20034;-55
2023/05/10 09:10:20;;;;;;;29.65;3.75;;;17.00;91.10;;;;;;4984311;28;20038;-55
2023/05/10 09:12:45;;;;;;;17.48;2.78;;;17.00;91.10;;;;;;4974722;28;20043;-55
2023/05/10 09:15:11;;;;;;;18.17;2.67;;;17.10;91.10;;;;;;4985504;28;20026;-55
2023/05/10 09:17:38;;;;;;;20.23;2.90;;;17.00;91.00;;;;;;4984182;28;20068;-54
2023/05/10 09:20:04;;;;;;;27.80;3.45;;;17.10;91.00;;;;;;4968447;28;20034;-55
2023/05/10 09:22:30;;;;;;;27.88;3.03;;;17.10;91.00;;;;;;4986362;28;20027;-55
2023/05/10 09:25:12;;;;;;;30.27;3.50;;;17.10;91.00;;;;;;4985443;28;20027;-54
2023/05/10 09:27:39;;;;;;;20.35;3.40;;;17.10;91.00;;;;;;4985731;28;20037;-55
2023/05/10 09:30:05;;;;;;;21.13;3.47;;;17.10;91.00;;;;;;4984008;28;20054;-55
2023/05/10 09:32:42;;;;;;;43.72;4.97;;;17.10;91.00;;;;;;4985775;28;20039;-55
2023/05/10 09:35:08;;;;;;;39.67;4.65;;;17.10;91.10;;;;;;4984995;28;20030;-55
2023/05/10 09:37:34;;;;;;;61.53;7.32;;;17.10;91.00;;;;;;4985165;28;20046;-54
2023/05/10 09:40:00;;;;;;;37.78;5.68;;;17.10;90.90;;;;;;4982876;28;20031;-55
2023/05/10 09:42:25;;;;;;;54.50;5.68;;;17.10;90.90;;;;;;4986459;28;20027;-55
2023/05/10 09:44:51;;;;;;;24.60;4.00;;;17.10;90.90;;;;;;4983643;28;20023;-55
2023/05/10 09:47:19;;;;;;;42.13;6.05;;;17.10;91.00;;;;;;4983837;28;20030;-54
2023/05/10 09:49:50;;;;;;;34.70;4.57;;;17.10;90.90;;;;;;4986252;28;20023;-55
2023/05/10 09:52:16;;;;;;;42.92;5.90;;;17.10;90.90;;;;;;4981207;28;20059;-55
2023/05/10 09:54:45;;;;;;;57.63;5.78;;;17.10;90.70;;;;;;4983730;28;20034;-54
2023/05/10 09:57:20;;;;;;;34.67;4.80;;;17.20;90.50;;;;;;4982730;28;20027;-54
2023/05/10 09:59:46;;;;;;;33.40;4.57;;;17.20;90.50;;;;;;4984495;28;20019;-55
2023/05/10 10:02:11;;;;;;;34.75;4.88;;;17.20;90.50;;;;;;4983615;28;20035;-55
2023/05/10 10:04:40;;;;;;;36.72;5.15;;;17.20;90.40;;;;;;4983169;28;20355;-55
2023/05/10 10:07:06;;;;;;;24.65;4.55;;;17.30;90.30;;;;;;4983409;28;20113;-55
2023/05/10 10:09:32;;;;;;;36.00;4.75;;;17.30;90.20;;;;;;4985963;28;20031;-55
2023/05/10 10:11:58;;;;;;;26.95;4.80;;;17.30;90.10;;;;;;4982576;28;20087;-55
2023/05/10 10:14:24;;;;;;;37.65;5.13;;;17.40;90.00;;;;;;4984699;28;20360;-55
2023/05/10 10:16:50;;;;;;;42.00;5.00;;;17.40;89.60;;;;;;4982996;28;20126;-55
2023/05/10 10:19:17;;;;;;;29.65;4.88;;;17.40;89.10;;;;;;4971062;28;20042;-55
2023/05/10 10:21:43;;;;;;;35.75;4.78;;;17.40;88.60;;;;;;4984478;28;20117;-54
2023/05/10 10:24:08;;;;;;;31.92;4.40;;;17.50;88.90;;;;;;4984368;28;20137;-55
2023/05/10 10:26:34;;;;;;;49.90;5.72;;;17.40;88.80;;;;;;4982319;28;20031;-54
2023/05/10 10:29:15;;;;;;;55.53;6.50;;;17.50;88.30;;;;;;4982752;28;20019;-55
2023/05/10 10:32:08;;;;;;;40.45;5.93;;;17.50;87.90;;;;;;4983375;28;20121;-55
2023/05/10 10:34:34;;;;;;;33.15;5.50;;;17.60;88.00;;;;;;4983758;28;20027;-55
2023/05/10 10:37:04;;;;;;;37.58;5.63;;;17.50;87.80;;;;;;4982160;28;20033;-55
2023/05/10 10:39:29;;;;;;;88.40;10.85;;;17.50;87.00;;;;;;4985073;28;20019;-55
2023/05/10 10:41:56;;;;;;;48.72;5.60;;;17.50;86.60;;;;;;4981678;28;20106;-55
2023/05/10 10:44:22;;;;;;;50.33;6.07;;;17.50;86.50;;;;;;4981029;28;20034;-55
2023/05/10 10:47:24;;;;;;;43.78;6.43;;;17.50;86.30;;;;;;4978661;28;20027;-55
2023/05/10 10:50:09;;;;;;;47.38;6.30;;;17.50;86.10;;;;;;4984799;28;20061;-55
2023/05/10 10:52:38;;;;;;;28.77;5.72;;;17.50;86.00;;;;;;4984523;28;20023;-55
2023/05/10 10:55:10;;;;;;;41.17;4.95;;;17.50;85.60;;;;;;4984451;28;20030;-55
2023/05/10 10:57:51;;;;;;;28.20;5.05;;;17.50;85.20;;;;;;4983781;28;20039;-55
2023/05/10 11:00:24;;;;;;;45.22;5.55;;;17.50;85.40;;;;;;4983256;28;20118;-54
2023/05/10 11:02:59;;;;;;;36.50;5.65;;;17.60;84.80;;;;;;4979144;28;20053;-55
2023/05/10 11:05:35;;;;;;;32.40;4.35;;;17.50;84.40;;;;;;4977956;28;20142;-55
2023/05/10 11:08:10;;;;;;;50.38;5.82;;;17.50;84.30;;;;;;4978236;28;20031;-55
2023/05/10 11:10:35;;;;;;;51.67;6.15;;;17.50;84.00;;;;;;4982867;28;20023;-55
2023/05/10 11:13:09;;;;;;;42.70;5.22;;;17.50;84.60;;;;;;4967733;28;20049;-55
2023/05/10 11:15:38;;;;;;;33.95;5.07;;;17.50;84.40;;;;;;4966364;28;20480;-55
2023/05/10 11:18:24;;;;;;;31.38;4.68;;;17.50;84.70;;;;;;4978420;28;20043;-55
2023/05/10 11:21:11;;;;;;;27.45;4.32;;;17.60;83.80;;;;;;4984084;28;20043;-55
2023/05/10 11:23:40;;;;;;;23.17;3.97;;;17.60;83.70;;;;;;4979091;28;20117;-55
2023/05/10 11:26:09;;;;;;;56.72;6.90;;;17.60;83.70;;;;;;4980271;28;20534;-54
2023/05/10 11:28:34;;;;;;;43.25;6.68;;;17.60;83.50;;;;;;4959863;28;20023;-55
2023/05/10 11:31:00;;;;;;;27.23;4.47;;;17.60;83.60;;;;;;4975780;28;20105;-55
2023/05/10 11:33:25;;;;;;;29.42;5.68;;;17.60;83.70;;;;;;4966447;28;20046;-55
2023/05/10 11:35:51;;;;;;;30.15;4.50;;;17.60;83.40;;;;;;4987697;28;20152;-55
2023/05/10 11:38:17;;;;;;;23.83;3.75;;;17.60;83.40;;;;;;4983122;28;20082;-54
2023/05/10 11:40:42;;;;;;;28.65;4.60;;;17.70;83.50;;;;;;4975235;28;20776;-55
2023/05/10 11:43:09;;;;;;;30.92;5.07;;;17.70;83.40;;;;;;4973735;28;20022;-55
2023/05/10 11:45:34;;;;;;;38.15;5.38;;;17.70;83.30;;;;;;4981664;28;20142;-55
2023/05/10 11:48:00;;;;;;;28.50;5.57;;;17.80;83.40;;;;;;4986674;28;20486;-55
2023/05/10 11:50:26;;;;;;;33.30;5.95;;;17.80;83.50;;;;;;4990048;28;20022;-54
2023/05/10 11:52:55;;;;;;;39.28;5.72;;;17.80;83.50;;;;;;4977520;28;20122;-55
2023/05/10 11:55:21;;;;;;;37.38;6.07;;;17.80;84.00;;;;;;4989410;28;20041;-55
2023/05/10 11:57:47;;;;;;;49.72;6.80;;;17.80;83.20;;;;;;4975675;28;20035;-54
2023/05/10 12:00:13;;;;;;;43.85;6.30;;;17.80;83.00;;;;;;4964835;28;20359;-55
2023/05/10 12:02:39;;;;;;;41.60;6.35;;;17.80;82.80;;;;;;4965178;28;20078;-54
2023/05/10 12:05:05;;;;;;;32.65;5.15;;;17.90;82.70;;;;;;4984975;28;20427;-54
2023/05/10 12:07:31;;;;;;;41.55;6.80;;;17.90;82.90;;;;;;4986210;28;20031;-54
2023/05/10 12:10:07;;;;;;;53.33;7.20;;;17.90;82.80;;;;;;4983664;28;20450;-55
2023/05/10 12:12:42;;;;;;;86.07;10.07;;;17.90;82.60;;;;;;4984016;28;20165;-55
2023/05/10 12:15:24;;;;;;;77.00;10.20;;;17.90;82.70;;;;;;4983642;28;20074;-55
2023/05/10 12:17:50;;;;;;;89.93;13.23;;;18.00;82.90;;;;;;4991177;28;20192;-54
2023/05/10 12:20:22;;;;;;;74.85;10.02;;;18.10;83.00;;;;;;4987623;28;20086;-54
2023/05/10 12:22:56;;;;;;;70.25;9.55;;;18.10;82.80;;;;;;4980857;28;20110;-55
2023/05/10 12:25:23;;;;;;;96.20;12.82;;;18.10;82.80;;;;;;4996860;28;20066;-54
2023/05/10 12:27:53;;;;;;;58.55;9.23;;;18.10;82.90;;;;;;4977682;28;20046;-54
2023/05/10 12:30:25;;;;;;;94.95;11.07;;;18.10;83.00;;;;;;4981038;28;20034;-55
2023/05/10 12:32:52;;;;;;;86.38;12.57;;;18.10;82.90;;;;;;4983870;28;20145;-54
2023/05/10 12:35:20;;;;;;;83.05;12.32;;;18.20;83.10;;;;;;5013139;28;20027;-54
2023/05/10 12:37:46;;;;;;;139.07;15.20;;;18.10;83.10;;;;;;4968789;28;20467;-55
2023/05/10 12:40:11;;;;;;;105.10;12.80;;;18.20;84.10;;;;;;4981156;28;20057;-55
2023/05/10 12:42:38;;;;;;;96.30;12.68;;;18.20;84.00;;;;;;4985451;28;20046;-54